Ana Sayfa
METAR-TAF:

METAR-TAF

Havaalanları :

New River Valley Airport

Dublin, Virginia, Amerika Birleşik Devletleri

Enlem: 37-08N, Boylam: 080-41W, yükseklik: 642 m

Güncel hava durumu gözlemi

Rapor saat 23:55 UTC de 10 dakika önce yapıldı.
Sakin rüzgar
Sıcaklık 4°C
Nem 48%
Basınç 1021 hPa
Görüş mesafesi: 16.1 km
Açık gökyüzü

METAR: KPSK 052355Z AUTO 00000KT 10SM CLR 04/M06 A3014 RMK AO2 T00371064 10098 20030

Saat: 19:05 (00:05 UTC)


TAF: eksik

4.000'den fazla havaalanı için hava durumu gözlemleri ve tahminleri (METAR ve TAF raporları).

Kullanılabilir istasyonlar harita üzerinde sarı ve kırmızı noktalarla gösterilir.

İstasyonun adını görmek için fareyi noktanın üzerinde gezdirin.

Sonrasında hava gözlem ve tahminlerini görmek için tıklayın.

Haritayı değiştirmek için: yaklaştırmak için siyah artı işaretli yeşil düğmeye ve uzaklaştırmak için de eksi işaretli düğmeye hızla tıklayın; bitişik haritalar için yeşil okları kullanın.


METAR-TAF: